Merced Regional Macready Field
KMCE : rendu visible

Aérodrome :











RETROUVEZ-NOUS SUR...

 
LOGIN :

S'inscrire | Disclaimer

   EN    FR    IT 

 









Légende :    VFR   VFR Marginal   IFR   IFR Intensif   IFR Très Intensif
Visi : 
Plafond : 
>= 8 km
>= 3000ft
5 à 8 km
1000 à 3000 ft
1500m à 5 km
500 à 1000 ft
800 à 1500m
200 à 500 ft
< 800m
< 200 ft
Symboles :   Orages  Brouillard  Fortes neiges  Fortes précipitations  Vent > 20 kt






- Altitude de l'aérodrome : 155 ft
- Code IATA : MCE


KMCE - Merced Regional Macready Field

DERNIER METAR :
  • 180853Z AUTO 35003KT 4SM BR CLR 04/03 A3033 RMK AO2 SLP271 T00390033 58001

METARs EXPIRÉS :
  • 180753Z AUTO 00000KT 4SM BR CLR 04/03 A3033 RMK AO2 SLP273 T00390033 401060017
  • 180745Z AUTO 34003KT 4SM BR CLR 03/03 A3034 RMK AO2 T00330028
  • 180721Z AUTO 00000KT 2 1/2SM BR CLR 04/04 A3033 RMK AO2 VIS 3/4V5 T00440039
  • 180653Z AUTO 00000KT 6SM BR CLR 05/04 A3033 RMK AO2 SLP272 T00500039

TAF KMCE
Valide du 18 à 08h jusqu'au 19 à 06h UTC


180805Z 1808/1906 10004KT 4SM BR BKN150
TEMPO 1808/1810 2SM BR
FM181000 08002KT 1/4SM FG OVC001
FM182000 VRB04KT 3SM HZ SKC



MET'MAP, la Météo Aéronautique d'un coup d'oeil ! - Copyright ORBIFLY Décembre 2007 - Disclaimer

ORBIFLY MET'MAP TEAM :

Programmation & Développement : Alexandra Zaïnal
Sur une idée originale de : Baudouin d'Aumeries
Assistance à la programmation : Marc-Olivier Méhu
Soutien technique & logistique : Manuel Goepfert

Contact : metmap@orbifly.com




SOURCES & CREDITS :

   NOAA       Earth
Advisory